createdAt,value
2022-09-28T00:02:26.569Z,100.00
2022-09-28T00:04:54.603Z,100.00
2022-09-28T00:07:22.539Z,100.00
2022-09-28T00:09:50.520Z,100.00
2022-09-28T00:12:18.466Z,100.00
2022-09-28T00:14:46.535Z,100.00
2022-09-28T00:17:16.828Z,100.00
2022-09-28T00:19:46.103Z,100.00
2022-09-28T00:22:14.025Z,100.00
2022-09-28T00:24:41.953Z,100.00
2022-09-28T00:27:09.859Z,100.00
2022-09-28T00:29:38.491Z,100.00
2022-09-28T00:32:07.229Z,100.00
2022-09-28T00:34:36.670Z,100.00
2022-09-28T00:37:06.513Z,100.00
2022-09-28T00:39:35.950Z,100.00
2022-09-28T00:42:04.022Z,100.00
2022-09-28T00:44:40.087Z,100.00
2022-09-28T00:47:25.683Z,100.00
2022-09-28T00:49:55.486Z,100.00
2022-09-28T00:52:27.164Z,100.00
2022-09-28T00:54:55.428Z,100.00
2022-09-28T00:57:23.332Z,100.00
2022-09-28T00:59:51.501Z,100.00
2022-09-28T01:02:19.787Z,100.00
2022-09-28T01:04:47.772Z,100.00
2022-09-28T01:07:15.739Z,100.00
2022-09-28T01:09:45.914Z,100.00
2022-09-28T01:12:13.871Z,100.00
2022-09-28T01:14:41.829Z,100.00
2022-09-28T01:17:15.604Z,100.00
2022-09-28T01:20:14.151Z,100.00
2022-09-28T01:23:17.305Z,100.00
2022-09-28T01:25:52.421Z,100.00
2022-09-28T01:28:22.320Z,100.00
2022-09-28T01:30:54.855Z,100.00
2022-09-28T01:33:24.890Z,100.00
2022-09-28T01:35:54.060Z,100.00
2022-09-28T01:38:23.175Z,100.00
2022-09-28T01:40:51.183Z,100.00
2022-09-28T01:43:21.171Z,100.00
2022-09-28T01:45:52.044Z,100.00
2022-09-28T01:48:22.667Z,100.00
2022-09-28T01:50:51.925Z,100.00
2022-09-28T01:53:21.768Z,100.00
2022-09-28T01:55:51.123Z,100.00
2022-09-28T01:58:20.227Z,100.00
2022-09-28T02:00:49.242Z,100.00
2022-09-28T02:03:19.643Z,100.00
2022-09-28T02:05:49.718Z,100.00
2022-09-28T02:08:20.058Z,100.00
2022-09-28T02:10:49.726Z,100.00
2022-09-28T02:13:18.364Z,100.00
2022-09-28T02:15:49.877Z,100.00
2022-09-28T02:18:19.688Z,100.00
2022-09-28T02:20:57.337Z,100.00
2022-09-28T02:23:25.241Z,100.00
2022-09-28T02:25:54.345Z,100.00
2022-09-28T02:28:22.289Z,100.00
2022-09-28T02:30:50.226Z,100.00
2022-09-28T02:33:21.174Z,100.00
2022-09-28T02:35:49.104Z,100.00
2022-09-28T02:38:17.037Z,100.00
2022-09-28T02:40:47.363Z,100.00
2022-09-28T02:43:17.081Z,100.00
2022-09-28T02:45:58.346Z,100.00
2022-09-28T02:48:44.114Z,100.00
2022-09-28T02:51:20.062Z,100.00
2022-09-28T02:53:59.284Z,100.00
2022-09-28T02:56:35.240Z,100.00
2022-09-28T02:59:08.111Z,100.00
2022-09-28T03:01:38.287Z,100.00
2022-09-28T03:04:11.470Z,100.00
2022-09-28T03:06:41.345Z,100.00
2022-09-28T03:09:13.012Z,100.00
2022-09-28T03:11:43.823Z,100.00
2022-09-28T03:14:11.774Z,100.00
2022-09-28T03:16:43.089Z,100.00
2022-09-28T03:19:12.406Z,100.00
2022-09-28T03:21:40.419Z,100.00
2022-09-28T03:24:11.196Z,100.00
2022-09-28T03:26:39.321Z,100.00
2022-09-28T03:29:07.269Z,100.00
2022-09-28T03:31:35.372Z,100.00
2022-09-28T03:34:03.402Z,100.00
2022-09-28T03:36:32.708Z,100.00
2022-09-28T03:39:00.761Z,100.00
2022-09-28T03:41:28.897Z,100.00
2022-09-28T03:43:56.840Z,100.00
2022-09-28T03:46:24.762Z,100.00
2022-09-28T03:48:52.688Z,100.00
2022-09-28T03:51:20.596Z,100.00
2022-09-28T03:53:49.903Z,100.00
2022-09-28T03:56:17.912Z,100.00
2022-09-28T03:58:45.846Z,100.00
2022-09-28T04:01:17.524Z,100.00
2022-09-28T04:03:46.054Z,100.00
2022-09-28T04:06:13.977Z,100.00
2022-09-28T04:08:43.115Z,100.00
2022-09-28T04:11:12.467Z,100.00
2022-09-28T04:13:40.471Z,100.00
2022-09-28T04:16:08.571Z,100.00
2022-09-28T04:18:36.551Z,100.00
2022-09-28T04:21:06.867Z,100.00
2022-09-28T04:23:35.059Z,100.00
2022-09-28T04:26:03.225Z,100.00
2022-09-28T04:28:50.174Z,100.00
2022-09-28T04:31:19.218Z,100.00
2022-09-28T04:33:47.224Z,100.00
2022-09-28T04:36:15.183Z,100.00
2022-09-28T04:38:58.317Z,100.00
2022-09-28T04:41:26.579Z,100.00
2022-09-28T04:43:55.873Z,100.00
2022-09-28T04:46:23.781Z,100.00
2022-09-28T04:48:51.713Z,100.00
2022-09-28T04:51:19.656Z,100.00
2022-09-28T04:53:47.598Z,100.00
2022-09-28T04:56:16.449Z,100.00
2022-09-28T04:58:46.921Z,100.00
2022-09-28T05:01:20.512Z,100.00
2022-09-28T05:03:48.476Z,100.00
2022-09-28T05:06:16.496Z,100.00
2022-09-28T05:08:46.811Z,100.00
2022-09-28T05:11:15.067Z,100.00
2022-09-28T05:13:43.798Z,100.00
2022-09-28T05:16:11.768Z,100.00
2022-09-28T05:18:41.071Z,100.00
2022-09-28T05:21:11.212Z,100.00
2022-09-28T05:23:39.136Z,100.00
2022-09-28T05:26:07.419Z,100.00
2022-09-28T05:28:35.398Z,100.00
2022-09-28T05:31:03.667Z,100.00
2022-09-28T05:33:32.132Z,100.00
2022-09-28T05:36:01.962Z,100.00
2022-09-28T05:38:30.225Z,100.00
2022-09-28T05:40:58.193Z,100.00
2022-09-28T05:43:26.269Z,100.00
2022-09-28T05:45:55.839Z,100.00
2022-09-28T05:48:24.016Z,100.00
2022-09-28T05:50:52.389Z,100.00
2022-09-28T05:53:21.776Z,100.00
2022-09-28T05:55:49.680Z,100.00
2022-09-28T05:58:17.703Z,100.00
2022-09-28T06:00:45.651Z,100.00
2022-09-28T06:03:14.338Z,100.00
2022-09-28T06:05:42.299Z,100.00
2022-09-28T06:08:11.664Z,100.00
2022-09-28T06:10:41.004Z,100.00
2022-09-28T06:13:08.954Z,100.00
2022-09-28T06:15:37.010Z,100.00
2022-09-28T06:18:06.160Z,100.00
2022-09-28T06:20:35.631Z,100.00
2022-09-28T06:23:03.577Z,100.00
2022-09-28T06:25:31.484Z,100.00
2022-09-28T06:28:01.437Z,100.00
2022-09-28T06:30:30.443Z,100.00
2022-09-28T06:32:59.169Z,100.00
2022-09-28T06:35:28.445Z,100.00
2022-09-28T06:37:56.344Z,100.00
2022-09-28T06:40:24.896Z,100.00
2022-09-28T06:42:56.452Z,100.00
2022-09-28T06:45:25.951Z,100.00
2022-09-28T06:47:55.864Z,100.00
2022-09-28T06:50:24.167Z,100.00
2022-09-28T06:52:53.521Z,100.00
2022-09-28T06:55:21.617Z,100.00
2022-09-28T06:57:49.668Z,100.00
2022-09-28T07:00:17.753Z,100.00
2022-09-28T07:02:47.123Z,100.00
2022-09-28T07:05:15.202Z,100.00
2022-09-28T07:07:44.820Z,100.00
2022-09-28T07:10:12.916Z,100.00
2022-09-28T07:12:41.164Z,100.00
2022-09-28T07:15:10.172Z,100.00
2022-09-28T07:17:52.404Z,100.00
2022-09-28T07:20:26.971Z,100.00
2022-09-28T07:22:55.559Z,100.00
2022-09-28T07:25:23.974Z,100.00
2022-09-28T07:27:51.881Z,100.00
2022-09-28T07:30:20.322Z,100.00
2022-09-28T07:32:48.435Z,100.00
2022-09-28T07:35:16.567Z,100.00
2022-09-28T07:37:45.920Z,100.00
2022-09-28T07:40:31.262Z,100.00
2022-09-28T07:43:05.254Z,100.00
2022-09-28T07:45:34.175Z,100.00
2022-09-28T07:48:02.752Z,91.77
2022-09-28T07:50:30.726Z,84.77
2022-09-28T07:53:00.551Z,78.50
2022-09-28T07:55:28.479Z,73.15
2022-09-28T07:57:59.589Z,87.40
2022-09-28T08:00:29.833Z,83.01
2022-09-28T08:03:01.335Z,73.62
2022-09-28T08:05:32.277Z,84.01
2022-09-28T08:08:01.747Z,100.00
2022-09-28T08:10:29.707Z,100.00
2022-09-28T08:13:00.552Z,100.00
2022-09-28T08:15:35.102Z,100.00
2022-09-28T08:18:03.122Z,100.00
2022-09-28T08:20:51.685Z,100.00
2022-09-28T08:23:21.450Z,96.50
2022-09-28T08:25:49.901Z,95.49
2022-09-28T08:28:18.272Z,100.00
2022-09-28T08:30:46.356Z,100.00
2022-09-28T08:33:14.318Z,100.00
2022-09-28T08:35:42.312Z,100.00
2022-09-28T08:38:10.712Z,100.00
2022-09-28T08:40:45.930Z,98.12
2022-09-28T08:43:22.948Z,86.42
2022-09-28T08:45:50.944Z,81.22
2022-09-28T08:48:37.317Z,83.90
2022-09-28T08:51:07.320Z,81.15
2022-09-28T08:53:39.254Z,81.24
2022-09-28T08:56:12.058Z,78.35
2022-09-28T08:58:42.060Z,75.47
2022-09-28T09:01:11.795Z,73.88
2022-09-28T09:03:41.956Z,68.42
2022-09-28T09:06:18.372Z,64.51
2022-09-28T09:08:51.726Z,72.23
2022-09-28T09:11:29.354Z,66.34
2022-09-28T09:14:29.711Z,66.71
2022-09-28T09:17:01.058Z,68.81
2022-09-28T09:19:36.343Z,63.86
2022-09-28T09:22:11.351Z,63.75
2022-09-28T09:24:41.891Z,61.91
2022-09-28T09:27:15.652Z,56.62
2022-09-28T09:29:51.039Z,58.33
2022-09-28T09:32:27.288Z,64.42
2022-09-28T09:35:08.777Z,61.29
2022-09-28T09:37:54.151Z,56.89
2022-09-28T09:40:33.577Z,61.90
2022-09-28T09:43:08.370Z,56.74
2022-09-28T09:45:43.748Z,57.14
2022-09-28T09:48:13.862Z,56.53
2022-09-28T09:50:45.940Z,55.27
2022-09-28T09:53:17.276Z,57.28
2022-09-28T09:55:45.838Z,57.55
2022-09-28T09:58:16.896Z,54.46
2022-09-28T10:00:45.790Z,55.22
2022-09-28T10:03:18.914Z,52.73
2022-09-28T10:05:47.073Z,54.01
2022-09-28T10:08:16.822Z,55.68
2022-09-28T10:10:50.015Z,56.58
2022-09-28T10:13:19.327Z,54.94
2022-09-28T10:15:49.202Z,52.62
2022-09-28T10:18:17.842Z,52.66
2022-09-28T10:20:46.117Z,52.90
2022-09-28T10:23:17.163Z,53.04
2022-09-28T10:25:45.205Z,53.63
2022-09-28T10:28:15.561Z,53.19
2022-09-28T10:30:45.124Z,51.59
2022-09-28T10:33:28.587Z,53.74
2022-09-28T10:35:56.745Z,49.53
2022-09-28T10:38:24.899Z,49.76
2022-09-28T10:40:54.521Z,50.31
2022-09-28T10:43:23.933Z,48.17
2022-09-28T10:46:01.239Z,46.38
2022-09-28T10:48:29.267Z,45.88
2022-09-28T10:51:05.266Z,45.22
2022-09-28T10:53:33.298Z,43.37
2022-09-28T10:56:03.114Z,44.45
2022-09-28T10:58:38.394Z,44.49
2022-09-28T11:01:12.006Z,43.95
2022-09-28T11:03:49.820Z,42.23
2022-09-28T11:06:17.770Z,43.71
2022-09-28T11:08:46.398Z,42.77
2022-09-28T11:11:15.125Z,42.38
2022-09-28T11:13:45.060Z,41.48
2022-09-28T11:16:30.529Z,41.74
2022-09-28T11:18:59.169Z,41.31
2022-09-28T11:21:28.153Z,40.99
2022-09-28T11:24:02.572Z,43.33
2022-09-28T11:26:35.919Z,42.83
2022-09-28T11:29:05.279Z,42.19
2022-09-28T11:31:36.202Z,44.17
2022-09-28T11:34:06.633Z,43.97
2022-09-28T11:36:50.275Z,43.05
2022-09-28T11:39:20.357Z,42.89
2022-09-28T11:41:54.513Z,42.53
2022-09-28T11:44:40.480Z,41.78
2022-09-28T11:47:34.764Z,39.61
2022-09-28T11:50:04.306Z,38.69
2022-09-28T11:52:33.742Z,37.25
2022-09-28T11:55:03.333Z,35.64
2022-09-28T11:57:32.684Z,35.69
2022-09-28T12:00:01.814Z,34.67
2022-09-28T12:02:35.454Z,35.28
2022-09-28T12:05:18.361Z,35.64
2022-09-28T12:07:49.963Z,34.19
2022-09-28T12:10:19.699Z,34.66
2022-09-28T12:12:49.043Z,34.10
2022-09-28T12:15:19.774Z,31.99
2022-09-28T12:17:50.815Z,31.74
2022-09-28T12:20:22.277Z,31.87
2022-09-28T12:22:55.738Z,33.70
2022-09-28T12:25:24.111Z,34.72
2022-09-28T12:27:54.024Z,35.68
2022-09-28T12:30:22.551Z,36.08
2022-09-28T12:32:53.923Z,38.19
2022-09-28T12:35:28.840Z,40.35
2022-09-28T12:38:08.974Z,40.28
2022-09-28T12:40:43.290Z,41.97
2022-09-28T12:43:28.323Z,43.19
2022-09-28T12:46:12.615Z,44.20
2022-09-28T12:49:43.643Z,42.71
2022-09-28T12:51:49.831Z,43.58
2022-09-28T12:54:26.231Z,43.80
2022-09-28T12:57:00.419Z,44.23
2022-09-28T12:59:30.511Z,44.97
2022-09-28T13:02:22.948Z,45.72
2022-09-28T13:05:02.244Z,45.00
2022-09-28T13:07:32.354Z,45.00
2022-09-28T13:10:06.897Z,45.12
2022-09-28T13:12:41.558Z,46.22
2022-09-28T13:15:24.910Z,45.44
2022-09-28T13:17:56.961Z,47.31
2022-09-28T13:20:35.815Z,46.90
2022-09-28T13:23:11.681Z,48.85
2022-09-28T13:25:41.504Z,47.79
2022-09-28T13:28:10.676Z,47.31
2022-09-28T13:30:40.356Z,48.76
2022-09-28T13:33:08.812Z,49.46
2022-09-28T13:35:38.196Z,47.36
2022-09-28T13:38:30.530Z,48.19
2022-09-28T13:41:12.175Z,47.54
2022-09-28T13:43:48.064Z,48.19
2022-09-28T13:46:20.244Z,47.69
2022-09-28T13:48:50.758Z,46.81
2022-09-28T13:51:33.939Z,49.35
2022-09-28T13:54:11.190Z,48.27
2022-09-28T13:56:45.455Z,50.61
2022-09-28T13:59:17.784Z,51.64
2022-09-28T14:01:47.729Z,50.32
2022-09-28T14:04:19.038Z,51.48
2022-09-28T14:06:55.541Z,53.21
2022-09-28T14:09:42.466Z,53.19
2022-09-28T14:12:30.485Z,51.57
2022-09-28T14:14:58.506Z,52.28
2022-09-28T14:17:59.836Z,51.85
2022-09-28T14:20:28.207Z,52.23
2022-09-28T14:23:31.347Z,52.69
2022-09-28T14:26:16.117Z,54.71
2022-09-28T14:28:50.097Z,54.95
2022-09-28T14:31:22.655Z,56.39
2022-09-28T14:33:56.924Z,59.33
2022-09-28T14:36:47.476Z,60.04
2022-09-28T14:39:39.530Z,58.48
2022-09-28T14:42:12.827Z,56.63
2022-09-28T14:45:18.169Z,56.51
2022-09-28T14:47:46.339Z,58.15
2022-09-28T14:50:23.522Z,58.56
2022-09-28T14:52:52.400Z,58.33
2022-09-28T14:55:25.550Z,58.63
2022-09-28T14:57:54.282Z,59.25
2022-09-28T15:00:23.418Z,59.83
2022-09-28T15:02:52.746Z,61.35
2022-09-28T15:05:24.779Z,63.13
2022-09-28T15:07:53.450Z,65.66
2022-09-28T15:10:28.307Z,66.05
2022-09-28T15:12:57.203Z,66.00
2022-09-28T15:15:31.777Z,67.81
2022-09-28T15:18:05.763Z,69.02
2022-09-28T15:20:35.444Z,68.39
2022-09-28T15:23:03.403Z,70.35
2022-09-28T15:25:33.998Z,70.94
2022-09-28T15:28:04.678Z,75.55
2022-09-28T15:30:33.208Z,78.64
2022-09-28T15:33:15.734Z,81.97
2022-09-28T15:35:43.676Z,83.91
2022-09-28T15:38:11.951Z,88.60
2022-09-28T15:40:41.371Z,89.58
2022-09-28T15:43:24.223Z,94.89
2022-09-28T15:46:02.952Z,99.03
2022-09-28T15:48:32.029Z,100.00
2022-09-28T15:51:02.578Z,100.00
2022-09-28T15:53:31.382Z,100.00
2022-09-28T15:56:09.693Z,100.00
2022-09-28T15:58:38.477Z,100.00
2022-09-28T16:01:29.417Z,100.00
2022-09-28T16:03:57.394Z,100.00
2022-09-28T16:06:25.427Z,100.00
2022-09-28T16:08:53.866Z,100.00
2022-09-28T16:11:26.290Z,100.00
2022-09-28T16:14:01.658Z,100.00
2022-09-28T16:16:31.274Z,100.00
2022-09-28T16:19:00.653Z,100.00
2022-09-28T16:21:44.497Z,100.00
2022-09-28T16:24:20.980Z,100.00
2022-09-28T16:26:50.387Z,100.00
2022-09-28T16:29:29.081Z,100.00
2022-09-28T16:31:57.050Z,100.00
2022-09-28T16:34:25.862Z,100.00
2022-09-28T16:36:53.821Z,100.00
2022-09-28T16:39:21.980Z,100.00
2022-09-28T16:41:53.889Z,100.00
2022-09-28T16:44:24.641Z,100.00
2022-09-28T16:46:53.947Z,100.00
2022-09-28T16:49:21.881Z,100.00
2022-09-28T16:51:49.919Z,100.00
2022-09-28T16:54:36.583Z,100.00
2022-09-28T16:57:06.709Z,100.00
2022-09-28T16:59:34.640Z,100.00
2022-09-28T17:02:02.642Z,100.00
2022-09-28T17:04:30.615Z,100.00
2022-09-28T17:06:58.551Z,100.00
2022-09-28T17:09:26.721Z,100.00
2022-09-28T17:11:56.188Z,100.00
2022-09-28T17:14:27.151Z,100.00
2022-09-28T17:17:08.157Z,100.00
2022-09-28T17:19:43.198Z,100.00
2022-09-28T17:22:11.144Z,100.00
2022-09-28T17:24:39.967Z,100.00
2022-09-28T17:27:08.240Z,100.00
2022-09-28T17:29:37.603Z,100.00
2022-09-28T17:32:08.375Z,100.00
2022-09-28T17:34:36.376Z,100.00
2022-09-28T17:37:04.321Z,100.00
2022-09-28T17:39:32.227Z,100.00
2022-09-28T17:42:00.222Z,100.00
2022-09-28T17:44:28.418Z,100.00
2022-09-28T17:46:57.737Z,100.00
2022-09-28T17:49:25.748Z,100.00
2022-09-28T17:51:54.253Z,100.00
2022-09-28T17:54:22.595Z,100.00
2022-09-28T17:56:50.808Z,100.00
2022-09-28T17:59:19.027Z,100.00
2022-09-28T18:01:48.259Z,100.00
2022-09-28T18:04:39.804Z,100.00
2022-09-28T18:07:05.766Z,100.00
2022-09-28T18:09:33.694Z,100.00
2022-09-28T18:12:02.267Z,100.00
2022-09-28T18:14:30.212Z,100.00
2022-09-28T18:16:58.179Z,100.00
2022-09-28T18:19:31.711Z,100.00
2022-09-28T18:22:01.428Z,100.00
2022-09-28T18:24:29.592Z,100.00
2022-09-28T18:26:57.566Z,100.00
2022-09-28T18:29:26.708Z,100.00
2022-09-28T18:31:56.034Z,100.00
2022-09-28T18:34:24.025Z,100.00
2022-09-28T18:36:53.499Z,100.00
2022-09-28T18:39:21.803Z,100.00
2022-09-28T18:41:49.752Z,100.00
2022-09-28T18:44:17.711Z,100.00
2022-09-28T18:46:45.726Z,100.00
2022-09-28T18:49:13.672Z,100.00
2022-09-28T18:51:41.686Z,100.00
2022-09-28T18:54:11.018Z,100.00
2022-09-28T18:56:38.965Z,100.00
2022-09-28T18:59:11.240Z,100.00
2022-09-28T19:01:41.681Z,100.00
2022-09-28T19:04:10.458Z,100.00
2022-09-28T19:06:40.709Z,100.00
2022-09-28T19:09:10.340Z,100.00
2022-09-28T19:11:38.310Z,100.00
2022-09-28T19:14:06.285Z,100.00
2022-09-28T19:16:34.774Z,100.00
2022-09-28T19:19:03.411Z,100.00
2022-09-28T19:21:31.505Z,100.00
2022-09-28T19:24:01.434Z,100.00
2022-09-28T19:26:30.863Z,100.00
2022-09-28T19:28:59.009Z,100.00
2022-09-28T19:31:27.166Z,100.00
2022-09-28T19:33:55.127Z,100.00
2022-09-28T19:36:24.263Z,100.00
2022-09-28T19:38:52.778Z,100.00
2022-09-28T19:41:39.099Z,100.00
2022-09-28T19:44:09.862Z,100.00
2022-09-28T19:46:38.868Z,100.00
2022-09-28T19:49:10.373Z,100.00
2022-09-28T19:51:46.915Z,100.00
2022-09-28T19:54:30.204Z,100.00
2022-09-28T19:57:01.378Z,100.00
2022-09-28T19:59:30.766Z,100.00
2022-09-28T20:02:01.351Z,100.00
2022-09-28T20:04:29.591Z,100.00
2022-09-28T20:06:57.527Z,100.00
2022-09-28T20:09:25.470Z,100.00
2022-09-28T20:11:53.406Z,100.00
2022-09-28T20:14:23.426Z,100.00
2022-09-28T20:16:55.227Z,100.00
2022-09-28T20:19:23.475Z,100.00
2022-09-28T20:21:51.493Z,100.00
2022-09-28T20:24:19.451Z,100.00
2022-09-28T20:26:49.615Z,100.00
2022-09-28T20:29:17.640Z,100.00
2022-09-28T20:31:45.709Z,100.00
2022-09-28T20:34:15.079Z,100.00
2022-09-28T20:36:44.716Z,100.00
2022-09-28T20:39:12.912Z,100.00
2022-09-28T20:41:41.203Z,100.00
2022-09-28T20:44:09.892Z,100.00
2022-09-28T20:46:38.116Z,100.00
2022-09-28T20:49:07.215Z,100.00
2022-09-28T20:51:36.506Z,100.00
2022-09-28T20:54:04.959Z,100.00
2022-09-28T20:56:37.621Z,100.00
2022-09-28T20:59:05.775Z,100.00
2022-09-28T21:01:33.892Z,100.00
2022-09-28T21:04:02.532Z,100.00
2022-09-28T21:06:31.473Z,100.00
2022-09-28T21:09:00.881Z,100.00
2022-09-28T21:11:29.562Z,100.00
2022-09-28T21:13:58.940Z,100.00
2022-09-28T21:16:27.136Z,100.00
2022-09-28T21:18:55.169Z,100.00
2022-09-28T21:21:23.426Z,100.00
2022-09-28T21:23:53.353Z,100.00
2022-09-28T21:26:25.945Z,100.00
2022-09-28T21:28:54.149Z,100.00
2022-09-28T21:31:27.535Z,100.00
2022-09-28T21:33:56.672Z,100.00
2022-09-28T21:36:24.647Z,100.00
2022-09-28T21:38:53.536Z,100.00
2022-09-28T21:41:22.856Z,100.00
2022-09-28T21:43:50.893Z,100.00
2022-09-28T21:46:18.952Z,100.00
2022-09-28T21:48:46.917Z,100.00
2022-09-28T21:51:15.230Z,100.00
2022-09-28T21:53:43.741Z,100.00
2022-09-28T21:56:13.067Z,100.00
2022-09-28T21:58:42.356Z,100.00
2022-09-28T22:01:12.204Z,100.00
2022-09-28T22:03:40.217Z,100.00
2022-09-28T22:06:08.593Z,100.00
2022-09-28T22:08:36.736Z,100.00
2022-09-28T22:11:06.558Z,100.00
2022-09-28T22:13:35.728Z,100.00
2022-09-28T22:16:05.184Z,100.00
2022-09-28T22:18:34.033Z,100.00
2022-09-28T22:21:02.085Z,100.00
2022-09-28T22:23:30.119Z,100.00
2022-09-28T22:26:01.557Z,100.00
2022-09-28T22:28:29.636Z,100.00
2022-09-28T22:30:57.693Z,100.00
2022-09-28T22:33:27.171Z,100.00
2022-09-28T22:35:55.515Z,100.00
2022-09-28T22:38:24.943Z,100.00
2022-09-28T22:40:54.261Z,100.00
2022-09-28T22:43:23.442Z,100.00
2022-09-28T22:45:51.406Z,100.00
2022-09-28T22:48:19.363Z,100.00
2022-09-28T22:50:51.804Z,100.00
2022-09-28T22:53:19.928Z,100.00
2022-09-28T22:55:47.888Z,100.00
2022-09-28T22:58:15.856Z,100.00
2022-09-28T23:00:44.537Z,100.00
2022-09-28T23:03:12.583Z,100.00
2022-09-28T23:05:40.569Z,100.00
2022-09-28T23:08:10.604Z,100.00
2022-09-28T23:10:38.617Z,100.00
2022-09-28T23:13:06.544Z,100.00
2022-09-28T23:15:34.486Z,100.00
2022-09-28T23:18:02.465Z,100.00
2022-09-28T23:20:30.408Z,100.00
2022-09-28T23:22:58.409Z,100.00
2022-09-28T23:25:29.046Z,100.00
2022-09-28T23:27:57.005Z,100.00
2022-09-28T23:30:25.710Z,100.00
2022-09-28T23:32:54.248Z,100.00
2022-09-28T23:35:22.208Z,100.00
2022-09-28T23:37:53.184Z,100.00
2022-09-28T23:40:21.206Z,100.00
2022-09-28T23:42:50.622Z,100.00
2022-09-28T23:45:18.558Z,100.00
2022-09-28T23:47:46.567Z,100.00
2022-09-28T23:50:14.551Z,100.00
2022-09-28T23:52:42.513Z,100.00
2022-09-28T23:55:10.687Z,100.00
2022-09-28T23:57:41.110Z,100.00
